createdAt,value
2019-05-12T00:01:04.608Z,15.90
2019-05-12T00:06:10.102Z,15.90
2019-05-12T00:11:17.827Z,15.90
2019-05-12T00:16:22.770Z,15.80
2019-05-12T00:21:28.418Z,15.90
2019-05-12T00:26:34.069Z,15.80
2019-05-12T00:31:39.892Z,15.60
2019-05-12T00:36:45.292Z,15.60
2019-05-12T00:41:50.876Z,15.60
2019-05-12T00:46:57.680Z,15.50
2019-05-12T00:52:03.284Z,15.50
2019-05-12T00:57:08.663Z,15.50
2019-05-12T01:02:14.105Z,15.50
2019-05-12T01:07:19.591Z,15.50
2019-05-12T01:12:24.986Z,15.60
2019-05-12T01:17:30.422Z,15.50
2019-05-12T01:22:38.017Z,15.20
2019-05-12T01:27:42.842Z,15.10
2019-05-12T01:32:48.430Z,15.20
2019-05-12T01:37:54.123Z,15.00
2019-05-12T01:42:59.646Z,14.90
2019-05-12T01:48:08.349Z,14.60
2019-05-12T01:53:12.583Z,14.60
2019-05-12T01:58:19.348Z,14.80
2019-05-12T02:03:25.183Z,14.80
2019-05-12T02:08:39.782Z,14.70
2019-05-12T02:13:45.147Z,14.70
2019-05-12T02:18:50.622Z,14.70
2019-05-12T02:23:58.148Z,14.70
2019-05-12T02:29:03.180Z,14.70
2019-05-12T02:34:08.590Z,14.70
2019-05-12T02:39:14.905Z,14.70
2019-05-12T02:44:20.788Z,14.70
2019-05-12T02:49:26.208Z,14.60
2019-05-12T02:54:50.577Z,14.50
2019-05-12T02:59:45.015Z,14.30
2019-05-12T03:04:54.424Z,14.20
2019-05-12T03:10:05.071Z,14.00
2019-05-12T03:15:09.646Z,13.90
2019-05-12T03:20:15.528Z,13.80
2019-05-12T03:25:29.063Z,13.80
2019-05-12T03:30:29.786Z,13.90
2019-05-12T03:35:42.611Z,13.80
2019-05-12T03:40:45.144Z,13.90
2019-05-12T03:45:49.379Z,14.00
2019-05-12T03:50:55.016Z,14.10
2019-05-12T03:56:00.410Z,14.10
2019-05-12T04:01:06.190Z,14.10
2019-05-12T04:06:15.110Z,14.10
2019-05-12T04:11:18.899Z,14.20
2019-05-12T04:16:26.571Z,14.20
2019-05-12T04:21:34.700Z,14.30
2019-05-12T04:26:38.987Z,14.20
2019-05-12T04:31:44.548Z,14.00
2019-05-12T04:36:49.947Z,14.00
2019-05-12T04:41:55.415Z,14.00
2019-05-12T04:47:00.872Z,13.80
2019-05-12T04:52:06.317Z,13.80
2019-05-12T04:57:14.849Z,13.80
2019-05-12T05:02:19.003Z,13.80
2019-05-12T05:07:24.641Z,13.70
2019-05-12T05:12:30.169Z,13.70
2019-05-12T05:17:35.674Z,13.80
2019-05-12T05:22:41.130Z,14.00
2019-05-12T05:27:46.836Z,14.10
2019-05-12T05:32:53.584Z,14.10
2019-05-12T05:37:59.148Z,14.10
2019-05-12T05:43:12.651Z,14.10
2019-05-12T05:48:13.587Z,14.20
2019-05-12T05:53:19.916Z,14.10
2019-05-12T05:58:26.288Z,14.10
2019-05-12T06:03:33.807Z,14.20
2019-05-12T06:08:39.103Z,14.30
2019-05-12T06:13:44.714Z,14.40
2019-05-12T06:18:50.252Z,14.40
2019-05-12T06:23:55.655Z,14.50
2019-05-12T06:29:01.174Z,14.60
2019-05-12T06:34:15.315Z,14.80
2019-05-12T06:39:18.676Z,14.90
2019-05-12T06:44:20.968Z,15.10
2019-05-12T06:49:26.560Z,15.30
2019-05-12T06:54:33.525Z,15.40
2019-05-12T06:59:41.882Z,15.60
2019-05-12T07:04:56.250Z,15.80
2019-05-12T07:09:56.658Z,15.90
2019-05-12T07:15:00.778Z,16.00
2019-05-12T07:20:06.662Z,16.20
2019-05-12T07:25:13.384Z,16.40
2019-05-12T07:30:27.835Z,16.60
2019-05-12T07:35:34.754Z,16.90
2019-05-12T07:40:40.641Z,17.00
2019-05-12T07:45:53.915Z,17.20
2019-05-12T07:51:00.433Z,17.10
2019-05-12T07:56:06.461Z,17.30
2019-05-12T08:01:14.399Z,17.70
2019-05-12T08:06:19.150Z,17.80
2019-05-12T08:11:28.837Z,17.90
2019-05-12T08:16:36.168Z,18.20
2019-05-12T08:21:43.802Z,18.50
2019-05-12T08:26:49.658Z,18.70
2019-05-12T08:31:54.840Z,18.50
2019-05-12T08:37:00.492Z,18.40
2019-05-12T08:42:06.055Z,18.30
2019-05-12T08:47:12.797Z,18.30
2019-05-12T08:52:18.687Z,18.40
2019-05-12T08:57:24.476Z,18.50
2019-05-12T09:02:30.079Z,18.50
2019-05-12T09:07:39.841Z,18.50
2019-05-12T09:12:44.243Z,18.70
2019-05-12T09:17:54.615Z,19.00
2019-05-12T09:23:00.762Z,18.90
2019-05-12T09:28:06.129Z,18.90
2019-05-12T09:33:14.032Z,18.90
2019-05-12T09:38:26.479Z,19.30
2019-05-12T09:43:34.204Z,19.30
2019-05-12T09:48:45.645Z,19.40
2019-05-12T09:53:50.772Z,19.40
2019-05-12T09:59:01.661Z,19.60
2019-05-12T10:04:10.453Z,19.90
2019-05-12T10:09:15.665Z,20.00
2019-05-12T10:14:23.551Z,19.60
2019-05-12T10:19:29.064Z,19.80
2019-05-12T10:24:41.449Z,19.80
2019-05-12T10:29:43.704Z,20.20
2019-05-12T10:34:51.090Z,20.30
2019-05-12T10:39:56.442Z,20.30
2019-05-12T10:45:16.926Z,20.50
2019-05-12T10:50:18.104Z,20.80
2019-05-12T10:55:23.923Z,20.90
2019-05-12T11:00:29.906Z,21.10
2019-05-12T11:05:35.479Z,21.40
2019-05-12T11:10:40.934Z,21.30
2019-05-12T11:15:49.585Z,21.40
2019-05-12T11:20:54.374Z,22.50
2019-05-12T11:26:00.820Z,22.50
2019-05-12T11:31:06.494Z,23.10
2019-05-12T11:36:30.964Z,23.30
2019-05-12T11:41:36.442Z,23.50
2019-05-12T11:46:50.859Z,24.10
2019-05-12T11:51:56.239Z,24.10
2019-05-12T11:57:03.672Z,24.50
2019-05-12T12:02:09.393Z,24.80
2019-05-12T12:07:15.885Z,25.20
2019-05-12T12:12:24.118Z,25.50
2019-05-12T12:17:35.078Z,25.30
2019-05-12T12:22:54.484Z,25.40
2019-05-12T12:28:00.003Z,25.40
2019-05-12T12:33:06.087Z,25.40
2019-05-12T12:38:13.923Z,25.70
2019-05-12T12:43:18.561Z,25.70
2019-05-12T12:48:25.535Z,25.80
2019-05-12T12:53:31.088Z,26.10
2019-05-12T12:58:36.542Z,25.90
2019-05-12T13:03:43.508Z,25.70
2019-05-12T13:08:48.980Z,25.70
2019-05-12T13:13:55.487Z,26.20
2019-05-12T13:19:06.208Z,25.90
2019-05-12T13:24:07.906Z,25.90
2019-05-12T13:29:13.542Z,26.30
2019-05-12T13:34:18.925Z,26.20
2019-05-12T13:39:24.351Z,25.90
2019-05-12T13:44:30.259Z,25.20
2019-05-12T13:49:42.741Z,25.40
2019-05-12T13:54:43.834Z,26.00
2019-05-12T13:59:53.701Z,26.00
2019-05-12T14:05:00.459Z,26.40
2019-05-12T14:10:03.882Z,26.50
2019-05-12T14:15:09.874Z,26.30
2019-05-12T14:20:20.080Z,26.70
2019-05-12T14:25:29.854Z,27.30
2019-05-12T14:30:33.682Z,27.00
2019-05-12T14:35:41.227Z,26.90
2019-05-12T14:40:53.493Z,27.30
2019-05-12T14:46:00.144Z,27.60
2019-05-12T14:51:06.035Z,27.90
2019-05-12T14:56:11.504Z,27.80
2019-05-12T15:01:17.165Z,27.20
2019-05-12T15:06:25.593Z,27.50
2019-05-12T15:11:30.052Z,27.50
2019-05-12T15:16:40.474Z,26.70
2019-05-12T15:21:43.705Z,27.30
2019-05-12T15:26:50.572Z,27.20
2019-05-12T15:31:56.909Z,26.80
2019-05-12T15:37:04.170Z,26.90
2019-05-12T15:42:09.909Z,26.90
2019-05-12T15:47:15.341Z,27.00
2019-05-12T15:52:20.762Z,26.70
2019-05-12T15:57:28.786Z,26.90
2019-05-12T16:02:34.946Z,27.00
2019-05-12T16:07:40.430Z,26.80
2019-05-12T16:12:45.924Z,26.50
2019-05-12T16:17:51.478Z,26.60
2019-05-12T16:22:57.053Z,26.20
2019-05-12T16:28:07.745Z,26.50
2019-05-12T16:33:12.087Z,26.50
2019-05-12T16:38:19.821Z,26.50
2019-05-12T16:43:24.120Z,26.40
2019-05-12T16:48:33.197Z,26.00
2019-05-12T16:53:36.793Z,25.90
2019-05-12T16:58:43.441Z,25.90
2019-05-12T17:03:49.108Z,25.70
2019-05-12T17:08:54.684Z,26.20
2019-05-12T17:14:03.953Z,25.90
2019-05-12T17:19:10.404Z,25.10
2019-05-12T17:24:14.719Z,25.20
2019-05-12T17:29:20.104Z,24.10
2019-05-12T17:34:26.012Z,23.80
2019-05-12T17:39:35.532Z,24.00
2019-05-12T17:44:39.111Z,23.80
2019-05-12T17:49:53.912Z,23.10
2019-05-12T17:55:05.874Z,23.30
2019-05-12T18:00:10.612Z,22.10
2019-05-12T18:05:16.039Z,20.80
2019-05-12T18:10:23.732Z,19.40
2019-05-12T18:15:33.294Z,19.70
2019-05-12T18:20:40.006Z,19.80
2019-05-12T18:25:44.326Z,20.20
2019-05-12T18:30:50.048Z,19.80
2019-05-12T18:35:55.440Z,18.90
2019-05-12T18:41:03.369Z,18.40
2019-05-12T18:46:09.276Z,18.30
2019-05-12T18:51:17.323Z,18.30
2019-05-12T18:56:24.679Z,18.40
2019-05-12T19:01:29.876Z,18.30
2019-05-12T19:06:35.434Z,18.10
2019-05-12T19:11:45.902Z,18.00
2019-05-12T19:16:53.784Z,17.90
2019-05-12T19:22:06.888Z,17.90
2019-05-12T19:27:10.347Z,18.00
2019-05-12T19:32:15.295Z,17.90
2019-05-12T19:37:26.382Z,17.80
2019-05-12T19:42:33.293Z,17.80
2019-05-12T19:47:38.652Z,17.60
2019-05-12T19:52:44.299Z,17.40
2019-05-12T19:57:50.312Z,17.30
2019-05-12T20:02:57.825Z,17.10
2019-05-12T20:08:04.197Z,16.90
2019-05-12T20:13:10.054Z,16.60
2019-05-12T20:18:15.938Z,16.70
2019-05-12T20:23:24.345Z,16.80
2019-05-12T20:28:29.349Z,16.80
2019-05-12T20:33:36.264Z,16.20
2019-05-12T20:38:47.389Z,16.30
2019-05-12T20:43:53.090Z,16.10
2019-05-12T20:49:14.743Z,16.20
2019-05-12T20:54:19.890Z,16.00
2019-05-12T20:59:28.105Z,16.20
2019-05-12T21:04:37.454Z,16.30
2019-05-12T21:09:40.701Z,16.40
2019-05-12T21:14:51.551Z,16.30
2019-05-12T21:19:59.267Z,16.00
2019-05-12T21:25:04.019Z,15.90
2019-05-12T21:30:11.930Z,15.80
2019-05-12T21:35:22.506Z,15.70
2019-05-12T21:40:30.268Z,15.50
2019-05-12T21:46:01.078Z,15.50
2019-05-12T21:51:09.731Z,15.50
2019-05-12T21:56:14.980Z,15.90
2019-05-12T22:01:24.322Z,15.90
2019-05-12T22:06:30.263Z,15.70
2019-05-12T22:11:36.074Z,15.40
2019-05-12T22:16:47.701Z,15.50
2019-05-12T22:21:53.747Z,15.40
2019-05-12T22:27:05.074Z,15.50
2019-05-12T22:32:10.420Z,15.70
2019-05-12T22:37:16.173Z,15.80
2019-05-12T22:42:24.326Z,16.00
2019-05-12T22:54:00.640Z,16.20
2019-05-12T22:59:13.740Z,16.00
2019-05-12T23:04:19.636Z,15.70
2019-05-12T23:09:30.036Z,15.50
2019-05-12T23:14:34.718Z,15.40
2019-05-12T23:26:08.514Z,15.60
2019-05-12T23:31:13.999Z,15.70
2019-05-12T23:36:50.552Z,15.70
2019-05-12T23:41:54.553Z,15.50
2019-05-12T23:47:00.018Z,15.40
2019-05-12T23:52:05.485Z,15.50
2019-05-12T23:57:12.974Z,15.40
